sensor_id;sensor_type;location;lat;lon;timestamp;P1;durP1;ratioP1;P2;durP2;ratioP2
20880;SDS011;10600;53.096;8.802;2024-03-25T00:00:17;6.07;;;3.63;;
20880;SDS011;10600;53.096;8.802;2024-03-25T00:01:18;8.13;;;3.45;;
20880;SDS011;10600;53.096;8.802;2024-03-25T00:02:18;7.97;;;3.25;;
20880;SDS011;10600;53.096;8.802;2024-03-25T00:03:19;10.85;;;4.22;;
20880;SDS011;10600;53.096;8.802;2024-03-25T00:04:19;7.03;;;3.10;;
20880;SDS011;10600;53.096;8.802;2024-03-25T00:05:22;8.00;;;2.65;;
20880;SDS011;10600;53.096;8.802;2024-03-25T00:06:25;6.20;;;2.90;;
20880;SDS011;10600;53.096;8.802;2024-03-25T00:07:26;4.78;;;2.60;;
20880;SDS011;10600;53.096;8.802;2024-03-25T00:08:26;4.82;;;2.70;;
20880;SDS011;10600;53.096;8.802;2024-03-25T00:09:27;4.93;;;1.85;;
20880;SDS011;10600;53.096;8.802;2024-03-25T00:10:28;3.65;;;2.05;;
20880;SDS011;10600;53.096;8.802;2024-03-25T00:11:28;4.45;;;2.40;;
20880;SDS011;10600;53.096;8.802;2024-03-25T00:12:29;5.35;;;2.50;;
20880;SDS011;10600;53.096;8.802;2024-03-25T00:13:29;3.95;;;1.20;;
20880;SDS011;10600;53.096;8.802;2024-03-25T00:14:30;9.90;;;3.45;;
20880;SDS011;10600;53.096;8.802;2024-03-25T00:15:31;5.15;;;2.83;;
20880;SDS011;10600;53.096;8.802;2024-03-25T00:16:33;4.07;;;2.35;;
20880;SDS011;10600;53.096;8.802;2024-03-25T00:17:34;9.18;;;3.92;;
20880;SDS011;10600;53.096;8.802;2024-03-25T00:18:35;2.85;;;1.88;;
20880;SDS011;10600;53.096;8.802;2024-03-25T00:19:35;4.78;;;1.75;;
20880;SDS011;10600;53.096;8.802;2024-03-25T00:20:36;2.70;;;1.52;;
20880;SDS011;10600;53.096;8.802;2024-03-25T00:21:36;3.53;;;2.08;;
20880;SDS011;10600;53.096;8.802;2024-03-25T00:22:37;5.32;;;2.22;;
20880;SDS011;10600;53.096;8.802;2024-03-25T00:23:37;6.18;;;2.42;;
20880;SDS011;10600;53.096;8.802;2024-03-25T00:24:38;5.53;;;1.45;;
20880;SDS011;10600;53.096;8.802;2024-03-25T00:25:38;8.02;;;2.67;;
20880;SDS011;10600;53.096;8.802;2024-03-25T00:26:39;2.95;;;1.30;;
20880;SDS011;10600;53.096;8.802;2024-03-25T00:27:39;2.47;;;1.52;;
20880;SDS011;10600;53.096;8.802;2024-03-25T00:28:40;5.32;;;2.50;;
20880;SDS011;10600;53.096;8.802;2024-03-25T00:29:40;6.60;;;2.92;;
20880;SDS011;10600;53.096;8.802;2024-03-25T00:30:41;4.30;;;2.03;;
20880;SDS011;10600;53.096;8.802;2024-03-25T00:31:42;3.97;;;2.22;;
20880;SDS011;10600;53.096;8.802;2024-03-25T00:32:42;4.80;;;2.40;;
20880;SDS011;10600;53.096;8.802;2024-03-25T00:33:43;10.80;;;3.70;;
20880;SDS011;10600;53.096;8.802;2024-03-25T00:34:43;4.75;;;2.88;;
20880;SDS011;10600;53.096;8.802;2024-03-25T00:35:44;10.60;;;4.15;;
20880;SDS011;10600;53.096;8.802;2024-03-25T00:36:45;9.95;;;4.35;;
20880;SDS011;10600;53.096;8.802;2024-03-25T00:37:46;6.05;;;3.40;;
20880;SDS011;10600;53.096;8.802;2024-03-25T00:38:46;7.10;;;3.55;;
20880;SDS011;10600;53.096;8.802;2024-03-25T00:39:47;8.30;;;3.45;;
20880;SDS011;10600;53.096;8.802;2024-03-25T00:40:47;9.90;;;3.85;;
20880;SDS011;10600;53.096;8.802;2024-03-25T00:41:48;9.40;;;3.50;;
20880;SDS011;10600;53.096;8.802;2024-03-25T00:42:49;6.72;;;3.38;;
20880;SDS011;10600;53.096;8.802;2024-03-25T00:43:57;10.63;;;3.58;;
20880;SDS011;10600;53.096;8.802;2024-03-25T00:44:58;8.65;;;3.80;;
20880;SDS011;10600;53.096;8.802;2024-03-25T00:45:58;11.45;;;4.28;;
20880;SDS011;10600;53.096;8.802;2024-03-25T00:46:59;7.65;;;4.10;;
20880;SDS011;10600;53.096;8.802;2024-03-25T00:48:00;7.20;;;4.15;;
20880;SDS011;10600;53.096;8.802;2024-03-25T00:49:00;9.60;;;3.53;;
20880;SDS011;10600;53.096;8.802;2024-03-25T00:50:01;8.32;;;3.83;;
20880;SDS011;10600;53.096;8.802;2024-03-25T00:51:01;7.13;;;2.83;;
20880;SDS011;10600;53.096;8.802;2024-03-25T00:52:02;6.35;;;3.10;;
20880;SDS011;10600;53.096;8.802;2024-03-25T00:53:02;7.35;;;2.75;;
20880;SDS011;10600;53.096;8.802;2024-03-25T00:54:03;11.15;;;4.43;;
20880;SDS011;10600;53.096;8.802;2024-03-25T00:55:04;7.78;;;3.78;;
20880;SDS011;10600;53.096;8.802;2024-03-25T00:56:04;5.55;;;3.10;;
20880;SDS011;10600;53.096;8.802;2024-03-25T00:57:05;9.88;;;5.07;;
20880;SDS011;10600;53.096;8.802;2024-03-25T00:58:06;11.70;;;4.78;;
20880;SDS011;10600;53.096;8.802;2024-03-25T00:59:07;12.32;;;4.70;;
20880;SDS011;10600;53.096;8.802;2024-03-25T01:00:07;10.75;;;4.00;;
20880;SDS011;10600;53.096;8.802;2024-03-25T01:01:08;9.05;;;3.72;;
20880;SDS011;10600;53.096;8.802;2024-03-25T01:02:09;9.50;;;4.05;;
20880;SDS011;10600;53.096;8.802;2024-03-25T01:03:09;11.35;;;4.35;;
20880;SDS011;10600;53.096;8.802;2024-03-25T01:04:10;8.85;;;4.40;;
20880;SDS011;10600;53.096;8.802;2024-03-25T01:05:10;11.63;;;5.50;;
20880;SDS011;10600;53.096;8.802;2024-03-25T01:06:11;8.93;;;4.90;;
20880;SDS011;10600;53.096;8.802;2024-03-25T01:07:12;11.07;;;4.03;;
20880;SDS011;10600;53.096;8.802;2024-03-25T01:08:12;10.73;;;4.00;;
20880;SDS011;10600;53.096;8.802;2024-03-25T01:09:14;11.68;;;3.92;;
20880;SDS011;10600;53.096;8.802;2024-03-25T01:10:16;8.65;;;3.53;;
20880;SDS011;10600;53.096;8.802;2024-03-25T01:11:16;6.32;;;3.80;;
20880;SDS011;10600;53.096;8.802;2024-03-25T01:12:17;10.48;;;4.32;;
20880;SDS011;10600;53.096;8.802;2024-03-25T01:13:17;9.10;;;4.53;;
20880;SDS011;10600;53.096;8.802;2024-03-25T01:14:18;11.65;;;6.05;;
20880;SDS011;10600;53.096;8.802;2024-03-25T01:15:18;14.93;;;7.13;;
20880;SDS011;10600;53.096;8.802;2024-03-25T01:16:19;12.38;;;7.35;;
20880;SDS011;10600;53.096;8.802;2024-03-25T01:17:19;13.38;;;7.25;;
20880;SDS011;10600;53.096;8.802;2024-03-25T01:18:20;14.73;;;8.65;;
20880;SDS011;10600;53.096;8.802;2024-03-25T01:19:20;22.02;;;9.93;;
20880;SDS011;10600;53.096;8.802;2024-03-25T01:20:21;20.25;;;10.50;;
20880;SDS011;10600;53.096;8.802;2024-03-25T01:21:22;15.57;;;10.10;;
20880;SDS011;10600;53.096;8.802;2024-03-25T01:22:22;17.88;;;10.43;;
20880;SDS011;10600;53.096;8.802;2024-03-25T01:23:23;18.48;;;10.98;;
20880;SDS011;10600;53.096;8.802;2024-03-25T01:24:23;13.38;;;8.88;;
20880;SDS011;10600;53.096;8.802;2024-03-25T01:25:25;22.20;;;10.38;;
20880;SDS011;10600;53.096;8.802;2024-03-25T01:26:25;17.45;;;8.88;;
20880;SDS011;10600;53.096;8.802;2024-03-25T01:27:26;9.77;;;6.25;;
20880;SDS011;10600;53.096;8.802;2024-03-25T01:28:27;13.68;;;6.95;;
20880;SDS011;10600;53.096;8.802;2024-03-25T01:29:27;14.93;;;6.68;;
20880;SDS011;10600;53.096;8.802;2024-03-25T01:30:28;12.02;;;7.50;;
20880;SDS011;10600;53.096;8.802;2024-03-25T01:31:29;20.80;;;8.40;;
20880;SDS011;10600;53.096;8.802;2024-03-25T01:32:30;18.75;;;9.20;;
20880;SDS011;10600;53.096;8.802;2024-03-25T01:33:30;12.60;;;6.05;;
20880;SDS011;10600;53.096;8.802;2024-03-25T01:34:31;13.27;;;7.20;;
20880;SDS011;10600;53.096;8.802;2024-03-25T01:35:31;12.77;;;6.15;;
20880;SDS011;10600;53.096;8.802;2024-03-25T01:36:32;9.23;;;5.03;;
20880;SDS011;10600;53.096;8.802;2024-03-25T01:37:33;9.25;;;5.35;;
20880;SDS011;10600;53.096;8.802;2024-03-25T01:38:33;11.18;;;4.57;;
20880;SDS011;10600;53.096;8.802;2024-03-25T01:39:34;8.45;;;3.88;;
20880;SDS011;10600;53.096;8.802;2024-03-25T01:40:34;7.25;;;2.45;;
20880;SDS011;10600;53.096;8.802;2024-03-25T01:41:35;7.72;;;2.83;;
20880;SDS011;10600;53.096;8.802;2024-03-25T01:42:36;4.78;;;1.90;;
20880;SDS011;10600;53.096;8.802;2024-03-25T01:43:37;6.53;;;1.70;;
20880;SDS011;10600;53.096;8.802;2024-03-25T01:44:43;7.60;;;3.45;;
20880;SDS011;10600;53.096;8.802;2024-03-25T01:45:44;9.43;;;3.45;;
20880;SDS011;10600;53.096;8.802;2024-03-25T01:46:44;6.93;;;3.05;;
20880;SDS011;10600;53.096;8.802;2024-03-25T01:47:45;7.07;;;3.05;;
20880;SDS011;10600;53.096;8.802;2024-03-25T01:48:46;5.97;;;2.83;;
20880;SDS011;10600;53.096;8.802;2024-03-25T01:49:48;8.95;;;3.53;;
20880;SDS011;10600;53.096;8.802;2024-03-25T01:50:49;5.18;;;2.22;;
20880;SDS011;10600;53.096;8.802;2024-03-25T01:51:50;7.72;;;3.40;;
20880;SDS011;10600;53.096;8.802;2024-03-25T01:52:51;8.15;;;2.58;;
20880;SDS011;10600;53.096;8.802;2024-03-25T01:53:52;8.32;;;3.28;;
20880;SDS011;10600;53.096;8.802;2024-03-25T01:54:54;7.15;;;3.35;;
20880;SDS011;10600;53.096;8.802;2024-03-25T01:55:55;7.88;;;3.13;;
20880;SDS011;10600;53.096;8.802;2024-03-25T01:56:57;10.80;;;3.25;;
20880;SDS011;10600;53.096;8.802;2024-03-25T01:57:58;8.90;;;3.20;;
20880;SDS011;10600;53.096;8.802;2024-03-25T01:58:59;8.38;;;3.05;;
20880;SDS011;10600;53.096;8.802;2024-03-25T02:00:01;9.10;;;2.78;;
20880;SDS011;10600;53.096;8.802;2024-03-25T02:01:01;6.82;;;2.83;;
20880;SDS011;10600;53.096;8.802;2024-03-25T02:02:03;6.93;;;2.63;;
20880;SDS011;10600;53.096;8.802;2024-03-25T02:03:04;9.15;;;2.72;;
20880;SDS011;10600;53.096;8.802;2024-03-25T02:04:05;11.40;;;3.22;;
20880;SDS011;10600;53.096;8.802;2024-03-25T02:05:07;8.18;;;3.42;;
20880;SDS011;10600;53.096;8.802;2024-03-25T02:06:09;7.72;;;2.17;;
20880;SDS011;10600;53.096;8.802;2024-03-25T02:07:13;4.30;;;1.85;;
20880;SDS011;10600;53.096;8.802;2024-03-25T02:08:14;7.18;;;2.78;;
20880;SDS011;10600;53.096;8.802;2024-03-25T02:09:15;8.60;;;3.22;;
20880;SDS011;10600;53.096;8.802;2024-03-25T02:10:16;4.72;;;2.25;;
20880;SDS011;10600;53.096;8.802;2024-03-25T02:11:17;6.72;;;2.53;;
20880;SDS011;10600;53.096;8.802;2024-03-25T02:12:19;8.25;;;3.17;;
20880;SDS011;10600;53.096;8.802;2024-03-25T02:13:20;8.95;;;2.90;;
20880;SDS011;10600;53.096;8.802;2024-03-25T02:14:21;6.05;;;2.63;;
20880;SDS011;10600;53.096;8.802;2024-03-25T02:15:22;11.23;;;3.33;;
20880;SDS011;10600;53.096;8.802;2024-03-25T02:16:23;9.65;;;3.65;;
20880;SDS011;10600;53.096;8.802;2024-03-25T02:17:24;7.57;;;2.85;;
20880;SDS011;10600;53.096;8.802;2024-03-25T02:18:24;12.52;;;3.50;;
20880;SDS011;10600;53.096;8.802;2024-03-25T02:19:25;12.20;;;3.20;;
20880;SDS011;10600;53.096;8.802;2024-03-25T02:20:26;10.70;;;3.40;;
20880;SDS011;10600;53.096;8.802;2024-03-25T02:21:27;10.75;;;3.38;;
20880;SDS011;10600;53.096;8.802;2024-03-25T02:22:27;7.65;;;3.33;;
20880;SDS011;10600;53.096;8.802;2024-03-25T02:23:29;9.05;;;3.28;;
20880;SDS011;10600;53.096;8.802;2024-03-25T02:24:30;8.43;;;3.50;;
20880;SDS011;10600;53.096;8.802;2024-03-25T02:25:32;10.40;;;3.47;;
20880;SDS011;10600;53.096;8.802;2024-03-25T02:26:33;10.38;;;3.25;;
20880;SDS011;10600;53.096;8.802;2024-03-25T02:27:34;12.65;;;3.90;;
20880;SDS011;10600;53.096;8.802;2024-03-25T02:28:38;11.40;;;3.60;;
20880;SDS011;10600;53.096;8.802;2024-03-25T02:29:38;14.52;;;3.95;;
20880;SDS011;10600;53.096;8.802;2024-03-25T02:30:39;5.78;;;3.42;;
20880;SDS011;10600;53.096;8.802;2024-03-25T02:31:40;15.13;;;4.35;;
20880;SDS011;10600;53.096;8.802;2024-03-25T02:32:41;6.25;;;3.08;;
20880;SDS011;10600;53.096;8.802;2024-03-25T02:33:41;8.93;;;3.30;;
20880;SDS011;10600;53.096;8.802;2024-03-25T02:34:46;9.73;;;3.35;;
20880;SDS011;10600;53.096;8.802;2024-03-25T02:35:51;6.43;;;3.35;;
20880;SDS011;10600;53.096;8.802;2024-03-25T02:36:52;18.00;;;4.65;;
20880;SDS011;10600;53.096;8.802;2024-03-25T02:37:53;11.20;;;3.45;;
20880;SDS011;10600;53.096;8.802;2024-03-25T02:38:54;9.27;;;3.50;;
20880;SDS011;10600;53.096;8.802;2024-03-25T02:39:55;8.02;;;4.05;;
20880;SDS011;10600;53.096;8.802;2024-03-25T02:40:58;7.53;;;3.03;;
20880;SDS011;10600;53.096;8.802;2024-03-25T02:41:59;10.90;;;3.80;;
20880;SDS011;10600;53.096;8.802;2024-03-25T02:43:00;11.60;;;3.60;;
20880;SDS011;10600;53.096;8.802;2024-03-25T02:44:00;8.82;;;3.95;;
20880;SDS011;10600;53.096;8.802;2024-03-25T02:45:01;6.75;;;3.35;;
20880;SDS011;10600;53.096;8.802;2024-03-25T02:46:02;11.70;;;4.93;;
20880;SDS011;10600;53.096;8.802;2024-03-25T02:47:02;13.23;;;3.65;;
20880;SDS011;10600;53.096;8.802;2024-03-25T02:48:04;9.10;;;2.92;;
20880;SDS011;10600;53.096;8.802;2024-03-25T02:49:05;10.75;;;3.63;;
20880;SDS011;10600;53.096;8.802;2024-03-25T02:50:06;8.23;;;3.83;;
20880;SDS011;10600;53.096;8.802;2024-03-25T02:51:06;8.32;;;3.28;;
20880;SDS011;10600;53.096;8.802;2024-03-25T02:52:07;5.18;;;2.50;;
20880;SDS011;10600;53.096;8.802;2024-03-25T02:53:07;10.95;;;3.50;;
20880;SDS011;10600;53.096;8.802;2024-03-25T02:54:08;6.70;;;2.80;;
20880;SDS011;10600;53.096;8.802;2024-03-25T02:55:08;13.18;;;4.25;;
20880;SDS011;10600;53.096;8.802;2024-03-25T02:56:09;9.10;;;3.50;;
20880;SDS011;10600;53.096;8.802;2024-03-25T02:57:09;8.80;;;3.47;;
20880;SDS011;10600;53.096;8.802;2024-03-25T02:58:10;10.05;;;3.85;;
20880;SDS011;10600;53.096;8.802;2024-03-25T02:59:10;6.68;;;3.22;;
20880;SDS011;10600;53.096;8.802;2024-03-25T03:00:11;8.32;;;3.15;;
20880;SDS011;10600;53.096;8.802;2024-03-25T03:01:12;12.70;;;3.83;;
20880;SDS011;10600;53.096;8.802;2024-03-25T03:02:15;10.20;;;3.33;;
20880;SDS011;10600;53.096;8.802;2024-03-25T03:03:15;9.35;;;4.15;;
20880;SDS011;10600;53.096;8.802;2024-03-25T03:04:16;7.70;;;3.30;;
20880;SDS011;10600;53.096;8.802;2024-03-25T03:05:16;11.65;;;3.78;;
20880;SDS011;10600;53.096;8.802;2024-03-25T03:06:17;9.70;;;3.30;;
20880;SDS011;10600;53.096;8.802;2024-03-25T03:07:18;14.80;;;4.28;;
20880;SDS011;10600;53.096;8.802;2024-03-25T03:08:19;9.35;;;3.75;;
20880;SDS011;10600;53.096;8.802;2024-03-25T03:09:20;6.70;;;3.17;;
20880;SDS011;10600;53.096;8.802;2024-03-25T03:10:21;9.65;;;3.35;;
20880;SDS011;10600;53.096;8.802;2024-03-25T03:11:21;13.65;;;4.10;;
20880;SDS011;10600;53.096;8.802;2024-03-25T03:12:22;8.43;;;3.30;;
20880;SDS011;10600;53.096;8.802;2024-03-25T03:13:22;6.30;;;3.50;;
20880;SDS011;10600;53.096;8.802;2024-03-25T03:14:23;8.50;;;4.00;;
20880;SDS011;10600;53.096;8.802;2024-03-25T03:15:23;10.20;;;4.03;;
20880;SDS011;10600;53.096;8.802;2024-03-25T03:16:24;6.13;;;3.17;;
20880;SDS011;10600;53.096;8.802;2024-03-25T03:17:24;12.73;;;4.18;;
20880;SDS011;10600;53.096;8.802;2024-03-25T03:18:25;9.20;;;3.10;;
20880;SDS011;10600;53.096;8.802;2024-03-25T03:19:25;9.68;;;3.60;;
20880;SDS011;10600;53.096;8.802;2024-03-25T03:20:26;12.77;;;3.50;;
20880;SDS011;10600;53.096;8.802;2024-03-25T03:21:27;7.40;;;3.70;;
20880;SDS011;10600;53.096;8.802;2024-03-25T03:22:28;12.27;;;3.25;;
20880;SDS011;10600;53.096;8.802;2024-03-25T03:23:28;13.15;;;3.58;;
20880;SDS011;10600;53.096;8.802;2024-03-25T03:24:29;7.32;;;3.25;;
20880;SDS011;10600;53.096;8.802;2024-03-25T03:25:29;11.18;;;3.88;;
20880;SDS011;10600;53.096;8.802;2024-03-25T03:26:31;7.28;;;3.05;;
20880;SDS011;10600;53.096;8.802;2024-03-25T03:27:31;13.73;;;3.97;;
20880;SDS011;10600;53.096;8.802;2024-03-25T03:28:32;12.65;;;4.03;;
20880;SDS011;10600;53.096;8.802;2024-03-25T03:29:32;16.20;;;3.80;;
20880;SDS011;10600;53.096;8.802;2024-03-25T03:30:33;10.82;;;3.35;;
20880;SDS011;10600;53.096;8.802;2024-03-25T03:31:33;11.63;;;3.50;;
20880;SDS011;10600;53.096;8.802;2024-03-25T03:32:34;9.95;;;3.85;;
20880;SDS011;10600;53.096;8.802;2024-03-25T03:33:34;9.60;;;3.97;;
20880;SDS011;10600;53.096;8.802;2024-03-25T03:34:35;9.40;;;4.28;;
20880;SDS011;10600;53.096;8.802;2024-03-25T03:35:35;8.60;;;3.67;;
20880;SDS011;10600;53.096;8.802;2024-03-25T03:36:36;9.32;;;3.20;;
20880;SDS011;10600;53.096;8.802;2024-03-25T03:37:37;9.50;;;3.50;;
20880;SDS011;10600;53.096;8.802;2024-03-25T03:38:37;10.48;;;3.35;;
20880;SDS011;10600;53.096;8.802;2024-03-25T03:39:38;9.15;;;3.78;;
20880;SDS011;10600;53.096;8.802;2024-03-25T03:40:38;8.95;;;3.47;;
20880;SDS011;10600;53.096;8.802;2024-03-25T03:41:39;10.35;;;3.47;;
20880;SDS011;10600;53.096;8.802;2024-03-25T03:42:39;7.68;;;3.45;;
20880;SDS011;10600;53.096;8.802;2024-03-25T03:43:40;9.98;;;3.22;;
20880;SDS011;10600;53.096;8.802;2024-03-25T03:44:40;14.40;;;3.50;;
20880;SDS011;10600;53.096;8.802;2024-03-25T03:45:41;9.20;;;3.50;;
20880;SDS011;10600;53.096;8.802;2024-03-25T03:46:41;6.85;;;3.40;;
20880;SDS011;10600;53.096;8.802;2024-03-25T03:47:42;11.15;;;3.45;;
20880;SDS011;10600;53.096;8.802;2024-03-25T03:48:42;8.52;;;3.63;;
20880;SDS011;10600;53.096;8.802;2024-03-25T03:49:43;15.00;;;3.35;;
20880;SDS011;10600;53.096;8.802;2024-03-25T03:50:43;10.65;;;3.75;;
20880;SDS011;10600;53.096;8.802;2024-03-25T03:51:44;8.60;;;3.53;;
20880;SDS011;10600;53.096;8.802;2024-03-25T03:52:44;14.27;;;3.10;;
20880;SDS011;10600;53.096;8.802;2024-03-25T03:53:45;10.43;;;3.83;;
20880;SDS011;10600;53.096;8.802;2024-03-25T03:54:45;8.40;;;3.65;;
20880;SDS011;10600;53.096;8.802;2024-03-25T03:55:56;13.70;;;3.83;;
20880;SDS011;10600;53.096;8.802;2024-03-25T03:56:58;7.90;;;3.33;;
20880;SDS011;10600;53.096;8.802;2024-03-25T03:57:58;12.18;;;3.92;;
20880;SDS011;10600;53.096;8.802;2024-03-25T03:58:59;9.95;;;3.25;;
20880;SDS011;10600;53.096;8.802;2024-03-25T03:59:59;8.35;;;3.80;;
20880;SDS011;10600;53.096;8.802;2024-03-25T04:01:00;11.20;;;4.03;;
20880;SDS011;10600;53.096;8.802;2024-03-25T04:02:01;17.30;;;3.83;;
20880;SDS011;10600;53.096;8.802;2024-03-25T04:03:01;13.48;;;3.90;;
20880;SDS011;10600;53.096;8.802;2024-03-25T04:04:02;12.10;;;4.15;;
20880;SDS011;10600;53.096;8.802;2024-03-25T04:05:05;11.50;;;3.58;;
20880;SDS011;10600;53.096;8.802;2024-03-25T04:06:09;10.55;;;3.65;;
20880;SDS011;10600;53.096;8.802;2024-03-25T04:07:11;13.02;;;3.78;;
20880;SDS011;10600;53.096;8.802;2024-03-25T04:08:12;11.65;;;3.88;;
20880;SDS011;10600;53.096;8.802;2024-03-25T04:09:13;13.68;;;4.43;;
20880;SDS011;10600;53.096;8.802;2024-03-25T04:10:13;16.83;;;3.95;;
20880;SDS011;10600;53.096;8.802;2024-03-25T04:11:14;11.73;;;3.40;;
20880;SDS011;10600;53.096;8.802;2024-03-25T04:12:15;11.20;;;3.65;;
20880;SDS011;10600;53.096;8.802;2024-03-25T04:13:19;14.63;;;4.10;;
20880;SDS011;10600;53.096;8.802;2024-03-25T04:14:24;11.07;;;4.20;;
20880;SDS011;10600;53.096;8.802;2024-03-25T04:15:24;13.27;;;4.47;;
20880;SDS011;10600;53.096;8.802;2024-03-25T04:16:26;18.83;;;4.65;;
20880;SDS011;10600;53.096;8.802;2024-03-25T04:17:26;20.02;;;5.18;;
20880;SDS011;10600;53.096;8.802;2024-03-25T04:18:27;11.55;;;3.70;;
20880;SDS011;10600;53.096;8.802;2024-03-25T04:19:28;17.10;;;5.05;;
20880;SDS011;10600;53.096;8.802;2024-03-25T04:20:29;14.13;;;3.42;;
20880;SDS011;10600;53.096;8.802;2024-03-25T04:21:30;14.52;;;3.85;;
20880;SDS011;10600;53.096;8.802;2024-03-25T04:22:30;15.45;;;4.57;;
20880;SDS011;10600;53.096;8.802;2024-03-25T04:23:31;12.73;;;4.70;;
20880;SDS011;10600;53.096;8.802;2024-03-25T04:24:32;15.35;;;3.75;;
20880;SDS011;10600;53.096;8.802;2024-03-25T04:25:34;16.42;;;4.25;;
20880;SDS011;10600;53.096;8.802;2024-03-25T04:26:38;12.20;;;4.65;;
20880;SDS011;10600;53.096;8.802;2024-03-25T04:27:39;12.35;;;3.95;;
20880;SDS011;10600;53.096;8.802;2024-03-25T04:28:40;18.67;;;4.35;;
20880;SDS011;10600;53.096;8.802;2024-03-25T04:29:40;13.73;;;4.30;;
20880;SDS011;10600;53.096;8.802;2024-03-25T04:30:41;13.88;;;3.75;;
20880;SDS011;10600;53.096;8.802;2024-03-25T04:31:42;17.63;;;4.70;;
20880;SDS011;10600;53.096;8.802;2024-03-25T04:32:42;19.33;;;4.93;;
20880;SDS011;10600;53.096;8.802;2024-03-25T04:33:43;16.00;;;4.47;;
20880;SDS011;10600;53.096;8.802;2024-03-25T04:34:43;14.55;;;4.30;;
20880;SDS011;10600;53.096;8.802;2024-03-25T04:35:44;12.02;;;3.90;;
20880;SDS011;10600;53.096;8.802;2024-03-25T04:36:45;16.67;;;4.25;;
20880;SDS011;10600;53.096;8.802;2024-03-25T04:37:46;12.90;;;4.22;;
20880;SDS011;10600;53.096;8.802;2024-03-25T04:38:46;19.52;;;5.80;;
20880;SDS011;10600;53.096;8.802;2024-03-25T04:39:47;17.50;;;4.70;;
20880;SDS011;10600;53.096;8.802;2024-03-25T04:40:48;14.80;;;4.10;;
20880;SDS011;10600;53.096;8.802;2024-03-25T04:41:50;14.73;;;3.65;;
20880;SDS011;10600;53.096;8.802;2024-03-25T04:42:50;17.55;;;3.95;;
20880;SDS011;10600;53.096;8.802;2024-03-25T04:43:51;14.23;;;4.50;;
20880;SDS011;10600;53.096;8.802;2024-03-25T04:44:51;14.05;;;3.67;;
20880;SDS011;10600;53.096;8.802;2024-03-25T04:45:52;14.07;;;4.25;;
20880;SDS011;10600;53.096;8.802;2024-03-25T04:46:52;17.27;;;4.85;;
20880;SDS011;10600;53.096;8.802;2024-03-25T04:47:53;19.00;;;4.75;;
20880;SDS011;10600;53.096;8.802;2024-03-25T04:48:53;12.52;;;3.92;;
20880;SDS011;10600;53.096;8.802;2024-03-25T04:49:54;21.58;;;4.68;;
20880;SDS011;10600;53.096;8.802;2024-03-25T04:50:55;17.45;;;4.25;;
20880;SDS011;10600;53.096;8.802;2024-03-25T04:51:55;16.90;;;4.20;;
20880;SDS011;10600;53.096;8.802;2024-03-25T04:52:56;21.52;;;4.43;;
20880;SDS011;10600;53.096;8.802;2024-03-25T04:53:56;11.93;;;4.00;;
20880;SDS011;10600;53.096;8.802;2024-03-25T04:54:57;16.80;;;4.35;;
20880;SDS011;10600;53.096;8.802;2024-03-25T04:55:57;16.40;;;4.93;;
20880;SDS011;10600;53.096;8.802;2024-03-25T04:56:58;15.93;;;4.22;;
20880;SDS011;10600;53.096;8.802;2024-03-25T04:57:58;16.45;;;4.60;;
20880;SDS011;10600;53.096;8.802;2024-03-25T04:58:59;18.02;;;4.80;;
20880;SDS011;10600;53.096;8.802;2024-03-25T05:00:01;19.08;;;5.03;;
20880;SDS011;10600;53.096;8.802;2024-03-25T05:01:02;22.73;;;5.07;;
20880;SDS011;10600;53.096;8.802;2024-03-25T05:02:03;16.30;;;4.45;;
20880;SDS011;10600;53.096;8.802;2024-03-25T05:03:04;21.98;;;4.28;;
20880;SDS011;10600;53.096;8.802;2024-03-25T05:04:05;10.98;;;3.63;;
20880;SDS011;10600;53.096;8.802;2024-03-25T05:05:09;15.32;;;4.47;;
20880;SDS011;10600;53.096;8.802;2024-03-25T05:06:09;12.20;;;3.97;;
20880;SDS011;10600;53.096;8.802;2024-03-25T05:07:11;17.60;;;3.70;;
20880;SDS011;10600;53.096;8.802;2024-03-25T05:08:11;16.60;;;4.13;;
20880;SDS011;10600;53.096;8.802;2024-03-25T05:09:12;21.25;;;4.80;;
20880;SDS011;10600;53.096;8.802;2024-03-25T05:10:12;17.70;;;4.38;;
20880;SDS011;10600;53.096;8.802;2024-03-25T05:11:13;20.55;;;4.68;;
20880;SDS011;10600;53.096;8.802;2024-03-25T05:12:14;12.75;;;3.85;;
20880;SDS011;10600;53.096;8.802;2024-03-25T05:13:14;15.07;;;4.00;;
20880;SDS011;10600;53.096;8.802;2024-03-25T05:14:15;18.90;;;4.70;;
20880;SDS011;10600;53.096;8.802;2024-03-25T05:15:16;15.95;;;4.68;;
20880;SDS011;10600;53.096;8.802;2024-03-25T05:16:16;14.23;;;4.57;;
20880;SDS011;10600;53.096;8.802;2024-03-25T05:17:17;21.42;;;5.07;;
20880;SDS011;10600;53.096;8.802;2024-03-25T05:18:17;21.35;;;6.25;;
20880;SDS011;10600;53.096;8.802;2024-03-25T05:19:18;12.45;;;6.15;;
20880;SDS011;10600;53.096;8.802;2024-03-25T05:20:19;21.98;;;6.70;;
20880;SDS011;10600;53.096;8.802;2024-03-25T05:21:21;17.52;;;6.00;;
20880;SDS011;10600;53.096;8.802;2024-03-25T05:22:21;23.60;;;7.00;;
20880;SDS011;10600;53.096;8.802;2024-03-25T05:23:22;14.27;;;4.47;;
20880;SDS011;10600;53.096;8.802;2024-03-25T05:24:22;13.15;;;4.03;;
20880;SDS011;10600;53.096;8.802;2024-03-25T05:25:23;12.85;;;3.65;;
20880;SDS011;10600;53.096;8.802;2024-03-25T05:26:28;28.50;;;5.75;;
20880;SDS011;10600;53.096;8.802;2024-03-25T05:27:29;12.90;;;4.22;;
20880;SDS011;10600;53.096;8.802;2024-03-25T05:28:29;18.65;;;4.38;;
20880;SDS011;10600;53.096;8.802;2024-03-25T05:29:31;15.55;;;4.07;;
20880;SDS011;10600;53.096;8.802;2024-03-25T05:30:33;13.88;;;4.10;;
20880;SDS011;10600;53.096;8.802;2024-03-25T05:31:33;14.93;;;3.83;;
20880;SDS011;10600;53.096;8.802;2024-03-25T05:32:34;12.88;;;4.32;;
20880;SDS011;10600;53.096;8.802;2024-03-25T05:33:35;9.63;;;2.97;;
20880;SDS011;10600;53.096;8.802;2024-03-25T05:34:35;23.90;;;4.82;;
20880;SDS011;10600;53.096;8.802;2024-03-25T05:35:36;15.48;;;3.55;;
20880;SDS011;10600;53.096;8.802;2024-03-25T05:36:37;14.95;;;3.67;;
20880;SDS011;10600;53.096;8.802;2024-03-25T05:37:38;18.35;;;4.10;;
20880;SDS011;10600;53.096;8.802;2024-03-25T05:38:38;17.98;;;4.30;;
20880;SDS011;10600;53.096;8.802;2024-03-25T05:39:39;12.18;;;4.10;;
20880;SDS011;10600;53.096;8.802;2024-03-25T05:40:40;14.63;;;4.10;;
20880;SDS011;10600;53.096;8.802;2024-03-25T05:41:40;19.40;;;4.78;;
20880;SDS011;10600;53.096;8.802;2024-03-25T05:42:44;17.65;;;3.95;;
20880;SDS011;10600;53.096;8.802;2024-03-25T05:43:45;10.10;;;2.78;;
20880;SDS011;10600;53.096;8.802;2024-03-25T05:44:46;12.10;;;3.42;;
20880;SDS011;10600;53.096;8.802;2024-03-25T05:45:53;12.98;;;4.70;;
20880;SDS011;10600;53.096;8.802;2024-03-25T05:46:54;18.10;;;4.20;;
20880;SDS011;10600;53.096;8.802;2024-03-25T05:47:54;18.95;;;5.63;;
20880;SDS011;10600;53.096;8.802;2024-03-25T05:48:55;15.93;;;4.30;;
20880;SDS011;10600;53.096;8.802;2024-03-25T05:49:55;17.45;;;4.38;;
20880;SDS011;10600;53.096;8.802;2024-03-25T05:50:57;14.27;;;3.65;;
20880;SDS011;10600;53.096;8.802;2024-03-25T05:52:01;16.02;;;4.10;;
20880;SDS011;10600;53.096;8.802;2024-03-25T05:53:02;18.05;;;6.43;;
20880;SDS011;10600;53.096;8.802;2024-03-25T05:54:03;17.25;;;5.15;;
20880;SDS011;10600;53.096;8.802;2024-03-25T05:55:03;19.77;;;4.28;;
20880;SDS011;10600;53.096;8.802;2024-03-25T05:56:04;16.10;;;3.78;;
20880;SDS011;10600;53.096;8.802;2024-03-25T05:57:05;15.73;;;3.60;;
20880;SDS011;10600;53.096;8.802;2024-03-25T05:58:05;18.30;;;5.00;;
20880;SDS011;10600;53.096;8.802;2024-03-25T05:59:08;17.77;;;4.18;;
20880;SDS011;10600;53.096;8.802;2024-03-25T06:00:08;16.90;;;5.47;;
20880;SDS011;10600;53.096;8.802;2024-03-25T06:01:13;17.45;;;3.25;;
20880;SDS011;10600;53.096;8.802;2024-03-25T06:02:13;16.98;;;4.43;;
20880;SDS011;10600;53.096;8.802;2024-03-25T06:03:14;13.32;;;4.63;;
20880;SDS011;10600;53.096;8.802;2024-03-25T06:04:16;17.25;;;4.80;;